Terminal Aerodrome Forecast
Issued by NWS

Home | Current Version | Previous Version | Text Only | Print | Product List | Glossary On
Versions: 1 2 3 4 5 6 7 8 9 10 11 12 13 14 15 16 17 18 19 20 21 22 23 24
000
FTUS43 KLSX 251100
TAFCPS
TAF
KCPS 251127Z 2512/2612 29010KT P6SM SKC
     FM251230 29009KT P6SM BKN025
     FM251430 28007KT P6SM SCT030
     FM252300 VRB03KT P6SM SCT250
     FM261000 14007KT P6SM BKN100=

USA.gov is the U.S. government's official web portal to all federal, state and local government web resources and services.